sensor_id;sensor_type;location;lat;lon;timestamp;P1;durP1;ratioP1;P2;durP2;ratioP2
46835;SDS011;32573;51.290;6.926;2024-02-26T00:00:40;0.85;;;0.70;;
46835;SDS011;32573;51.290;6.926;2024-02-26T00:03:08;1.27;;;0.80;;
46835;SDS011;32573;51.290;6.926;2024-02-26T00:05:37;1.58;;;0.80;;
46835;SDS011;32573;51.290;6.926;2024-02-26T00:08:07;1.70;;;0.82;;
46835;SDS011;32573;51.290;6.926;2024-02-26T00:10:35;0.77;;;0.70;;
46835;SDS011;32573;51.290;6.926;2024-02-26T00:13:04;1.83;;;0.90;;
46835;SDS011;32573;51.290;6.926;2024-02-26T00:15:32;1.33;;;0.80;;
46835;SDS011;32573;51.290;6.926;2024-02-26T00:18:02;1.52;;;0.80;;
46835;SDS011;32573;51.290;6.926;2024-02-26T00:20:31;1.67;;;0.80;;
46835;SDS011;32573;51.290;6.926;2024-02-26T00:22:59;1.10;;;0.70;;
46835;SDS011;32573;51.290;6.926;2024-02-26T00:25:28;1.50;;;0.80;;
46835;SDS011;32573;51.290;6.926;2024-02-26T00:27:56;1.67;;;0.80;;
46835;SDS011;32573;51.290;6.926;2024-02-26T00:30:25;0.88;;;0.70;;
46835;SDS011;32573;51.290;6.926;2024-02-26T00:32:54;1.38;;;0.80;;
46835;SDS011;32573;51.290;6.926;2024-02-26T00:35:23;1.15;;;0.73;;
46835;SDS011;32573;51.290;6.926;2024-02-26T00:37:51;0.70;;;0.70;;
46835;SDS011;32573;51.290;6.926;2024-02-26T00:40:20;1.02;;;0.70;;
46835;SDS011;32573;51.290;6.926;2024-02-26T00:42:49;1.50;;;0.73;;
46835;SDS011;32573;51.290;6.926;2024-02-26T00:45:18;0.88;;;0.70;;
46835;SDS011;32573;51.290;6.926;2024-02-26T00:47:47;1.25;;;0.77;;
46835;SDS011;32573;51.290;6.926;2024-02-26T00:50:16;0.93;;;0.65;;
46835;SDS011;32573;51.290;6.926;2024-02-26T00:52:44;1.50;;;0.80;;
46835;SDS011;32573;51.290;6.926;2024-02-26T00:55:13;1.00;;;0.70;;
46835;SDS011;32573;51.290;6.926;2024-02-26T00:57:41;0.88;;;0.68;;
46835;SDS011;32573;51.290;6.926;2024-02-26T01:00:11;1.65;;;0.70;;
46835;SDS011;32573;51.290;6.926;2024-02-26T01:02:41;1.75;;;0.80;;
46835;SDS011;32573;51.290;6.926;2024-02-26T01:05:10;1.20;;;0.80;;
46835;SDS011;32573;51.290;6.926;2024-02-26T01:07:38;1.15;;;0.80;;
46835;SDS011;32573;51.290;6.926;2024-02-26T01:10:07;1.10;;;0.77;;
46835;SDS011;32573;51.290;6.926;2024-02-26T01:12:36;1.65;;;0.82;;
46835;SDS011;32573;51.290;6.926;2024-02-26T01:15:05;1.23;;;0.80;;
46835;SDS011;32573;51.290;6.926;2024-02-26T01:17:35;1.00;;;0.70;;
46835;SDS011;32573;51.290;6.926;2024-02-26T01:20:04;1.25;;;0.70;;
46835;SDS011;32573;51.290;6.926;2024-02-26T01:22:34;1.95;;;0.77;;
46835;SDS011;32573;51.290;6.926;2024-02-26T01:25:03;1.10;;;0.80;;
46835;SDS011;32573;51.290;6.926;2024-02-26T01:27:32;1.65;;;0.80;;
46835;SDS011;32573;51.290;6.926;2024-02-26T01:30:00;1.10;;;0.70;;
46835;SDS011;32573;51.290;6.926;2024-02-26T01:32:30;1.88;;;0.90;;
46835;SDS011;32573;51.290;6.926;2024-02-26T01:35:00;1.38;;;0.88;;
46835;SDS011;32573;51.290;6.926;2024-02-26T01:37:30;1.60;;;0.90;;
46835;SDS011;32573;51.290;6.926;2024-02-26T01:39:58;1.27;;;0.75;;
46835;SDS011;32573;51.290;6.926;2024-02-26T01:42:26;2.05;;;0.90;;
46835;SDS011;32573;51.290;6.926;2024-02-26T01:44:56;1.85;;;0.90;;
46835;SDS011;32573;51.290;6.926;2024-02-26T01:47:24;1.23;;;0.80;;
46835;SDS011;32573;51.290;6.926;2024-02-26T01:49:54;1.17;;;0.70;;
46835;SDS011;32573;51.290;6.926;2024-02-26T01:52:24;1.42;;;0.88;;
46835;SDS011;32573;51.290;6.926;2024-02-26T01:54:52;1.30;;;0.80;;
46835;SDS011;32573;51.290;6.926;2024-02-26T01:57:20;1.50;;;0.80;;
46835;SDS011;32573;51.290;6.926;2024-02-26T01:59:49;1.25;;;0.80;;
46835;SDS011;32573;51.290;6.926;2024-02-26T02:02:17;1.80;;;0.80;;
46835;SDS011;32573;51.290;6.926;2024-02-26T02:04:45;1.63;;;0.80;;
46835;SDS011;32573;51.290;6.926;2024-02-26T02:07:14;1.75;;;0.90;;
46835;SDS011;32573;51.290;6.926;2024-02-26T02:09:43;1.95;;;0.82;;
46835;SDS011;32573;51.290;6.926;2024-02-26T02:12:12;1.73;;;0.80;;
46835;SDS011;32573;51.290;6.926;2024-02-26T02:14:41;2.00;;;0.98;;
46835;SDS011;32573;51.290;6.926;2024-02-26T02:17:09;1.58;;;0.82;;
46835;SDS011;32573;51.290;6.926;2024-02-26T02:19:38;2.38;;;0.95;;
46835;SDS011;32573;51.290;6.926;2024-02-26T02:22:08;2.13;;;0.95;;
46835;SDS011;32573;51.290;6.926;2024-02-26T02:24:36;1.25;;;0.80;;
46835;SDS011;32573;51.290;6.926;2024-02-26T02:27:04;2.10;;;0.90;;
46835;SDS011;32573;51.290;6.926;2024-02-26T02:29:33;2.17;;;1.00;;
46835;SDS011;32573;51.290;6.926;2024-02-26T02:32:01;1.38;;;0.80;;
46835;SDS011;32573;51.290;6.926;2024-02-26T02:34:31;2.88;;;0.93;;
46835;SDS011;32573;51.290;6.926;2024-02-26T02:37:01;2.10;;;0.90;;
46835;SDS011;32573;51.290;6.926;2024-02-26T02:39:30;2.80;;;1.02;;
46835;SDS011;32573;51.290;6.926;2024-02-26T02:41:58;2.33;;;1.00;;
46835;SDS011;32573;51.290;6.926;2024-02-26T02:44:27;2.28;;;1.05;;
46835;SDS011;32573;51.290;6.926;2024-02-26T02:46:55;2.88;;;1.00;;
46835;SDS011;32573;51.290;6.926;2024-02-26T02:49:23;2.17;;;1.05;;
46835;SDS011;32573;51.290;6.926;2024-02-26T02:51:52;2.28;;;1.10;;
46835;SDS011;32573;51.290;6.926;2024-02-26T02:54:21;2.33;;;1.00;;
46835;SDS011;32573;51.290;6.926;2024-02-26T02:56:50;2.72;;;1.10;;
46835;SDS011;32573;51.290;6.926;2024-02-26T02:59:19;3.05;;;1.10;;
46835;SDS011;32573;51.290;6.926;2024-02-26T03:01:47;2.42;;;1.10;;
46835;SDS011;32573;51.290;6.926;2024-02-26T03:04:16;2.75;;;1.08;;
46835;SDS011;32573;51.290;6.926;2024-02-26T03:06:44;3.28;;;1.23;;
46835;SDS011;32573;51.290;6.926;2024-02-26T03:09:12;2.22;;;1.00;;
46835;SDS011;32573;51.290;6.926;2024-02-26T03:11:41;3.35;;;1.02;;
46835;SDS011;32573;51.290;6.926;2024-02-26T03:14:11;2.22;;;1.00;;
46835;SDS011;32573;51.290;6.926;2024-02-26T03:16:40;3.50;;;1.13;;
46835;SDS011;32573;51.290;6.926;2024-02-26T03:19:08;1.60;;;0.80;;
46835;SDS011;32573;51.290;6.926;2024-02-26T03:21:36;1.67;;;0.90;;
46835;SDS011;32573;51.290;6.926;2024-02-26T03:24:05;1.88;;;1.00;;
46835;SDS011;32573;51.290;6.926;2024-02-26T03:26:36;2.03;;;0.90;;
46835;SDS011;32573;51.290;6.926;2024-02-26T03:29:04;1.90;;;0.90;;
46835;SDS011;32573;51.290;6.926;2024-02-26T03:31:34;1.55;;;0.85;;
46835;SDS011;32573;51.290;6.926;2024-02-26T03:34:02;2.70;;;0.98;;
46835;SDS011;32573;51.290;6.926;2024-02-26T03:36:30;1.52;;;0.90;;
46835;SDS011;32573;51.290;6.926;2024-02-26T03:38:59;2.28;;;0.90;;
46835;SDS011;32573;51.290;6.926;2024-02-26T03:41:27;1.50;;;0.90;;
46835;SDS011;32573;51.290;6.926;2024-02-26T03:43:55;2.03;;;0.90;;
46835;SDS011;32573;51.290;6.926;2024-02-26T03:46:24;2.08;;;1.00;;
46835;SDS011;32573;51.290;6.926;2024-02-26T03:48:53;2.08;;;1.00;;
46835;SDS011;32573;51.290;6.926;2024-02-26T03:51:22;2.85;;;1.20;;
46835;SDS011;32573;51.290;6.926;2024-02-26T03:53:50;2.85;;;1.33;;
46835;SDS011;32573;51.290;6.926;2024-02-26T03:56:18;3.15;;;1.13;;
46835;SDS011;32573;51.290;6.926;2024-02-26T03:58:47;2.80;;;1.10;;
46835;SDS011;32573;51.290;6.926;2024-02-26T04:01:15;3.38;;;1.30;;
46835;SDS011;32573;51.290;6.926;2024-02-26T04:03:44;2.88;;;1.20;;
46835;SDS011;32573;51.290;6.926;2024-02-26T04:06:14;3.10;;;1.20;;
46835;SDS011;32573;51.290;6.926;2024-02-26T04:08:42;2.00;;;1.00;;
46835;SDS011;32573;51.290;6.926;2024-02-26T04:11:10;2.20;;;1.15;;
46835;SDS011;32573;51.290;6.926;2024-02-26T04:13:39;2.55;;;1.10;;
46835;SDS011;32573;51.290;6.926;2024-02-26T04:16:07;2.63;;;1.20;;
46835;SDS011;32573;51.290;6.926;2024-02-26T04:18:36;3.13;;;1.30;;
46835;SDS011;32573;51.290;6.926;2024-02-26T04:21:05;2.60;;;1.20;;
46835;SDS011;32573;51.290;6.926;2024-02-26T04:23:36;2.20;;;1.05;;
46835;SDS011;32573;51.290;6.926;2024-02-26T04:26:04;2.67;;;1.20;;
46835;SDS011;32573;51.290;6.926;2024-02-26T04:28:33;2.58;;;1.20;;
46835;SDS011;32573;51.290;6.926;2024-02-26T04:31:01;2.95;;;1.10;;
46835;SDS011;32573;51.290;6.926;2024-02-26T04:33:29;2.20;;;1.20;;
46835;SDS011;32573;51.290;6.926;2024-02-26T04:35:58;2.90;;;1.17;;
46835;SDS011;32573;51.290;6.926;2024-02-26T04:38:27;2.47;;;1.13;;
46835;SDS011;32573;51.290;6.926;2024-02-26T04:40:56;2.83;;;1.20;;
46835;SDS011;32573;51.290;6.926;2024-02-26T04:43:24;2.80;;;1.30;;
46835;SDS011;32573;51.290;6.926;2024-02-26T04:45:53;3.58;;;1.23;;
46835;SDS011;32573;51.290;6.926;2024-02-26T04:48:23;2.63;;;1.15;;
46835;SDS011;32573;51.290;6.926;2024-02-26T04:50:52;4.88;;;1.42;;
46835;SDS011;32573;51.290;6.926;2024-02-26T04:53:20;2.97;;;1.20;;
46835;SDS011;32573;51.290;6.926;2024-02-26T04:55:48;2.63;;;1.20;;
46835;SDS011;32573;51.290;6.926;2024-02-26T04:58:18;3.08;;;1.50;;
46835;SDS011;32573;51.290;6.926;2024-02-26T05:00:46;2.90;;;1.30;;
46835;SDS011;32573;51.290;6.926;2024-02-26T05:03:15;3.85;;;1.50;;
46835;SDS011;32573;51.290;6.926;2024-02-26T05:05:43;3.90;;;1.42;;
46835;SDS011;32573;51.290;6.926;2024-02-26T05:08:12;2.90;;;1.45;;
46835;SDS011;32573;51.290;6.926;2024-02-26T05:10:41;3.38;;;1.30;;
46835;SDS011;32573;51.290;6.926;2024-02-26T05:13:10;2.78;;;1.30;;
46835;SDS011;32573;51.290;6.926;2024-02-26T05:15:40;4.60;;;1.60;;
46835;SDS011;32573;51.290;6.926;2024-02-26T05:18:08;4.00;;;1.70;;
46835;SDS011;32573;51.290;6.926;2024-02-26T05:20:36;5.35;;;1.70;;
46835;SDS011;32573;51.290;6.926;2024-02-26T05:23:05;3.03;;;1.50;;
46835;SDS011;32573;51.290;6.926;2024-02-26T05:25:33;3.28;;;1.40;;
46835;SDS011;32573;51.290;6.926;2024-02-26T05:28:01;3.25;;;1.40;;
46835;SDS011;32573;51.290;6.926;2024-02-26T05:30:30;2.95;;;1.42;;
46835;SDS011;32573;51.290;6.926;2024-02-26T05:32:59;2.40;;;1.20;;
46835;SDS011;32573;51.290;6.926;2024-02-26T05:35:28;3.22;;;1.45;;
46835;SDS011;32573;51.290;6.926;2024-02-26T05:37:56;3.45;;;1.52;;
46835;SDS011;32573;51.290;6.926;2024-02-26T05:40:24;2.97;;;1.35;;
46835;SDS011;32573;51.290;6.926;2024-02-26T05:42:52;3.20;;;1.40;;
46835;SDS011;32573;51.290;6.926;2024-02-26T05:45:21;3.60;;;1.50;;
46835;SDS011;32573;51.290;6.926;2024-02-26T05:47:49;3.03;;;1.52;;
46835;SDS011;32573;51.290;6.926;2024-02-26T05:50:19;3.33;;;1.50;;
46835;SDS011;32573;51.290;6.926;2024-02-26T05:52:47;3.30;;;1.70;;
46835;SDS011;32573;51.290;6.926;2024-02-26T05:55:15;3.15;;;1.40;;
46835;SDS011;32573;51.290;6.926;2024-02-26T05:57:44;3.58;;;1.65;;
46835;SDS011;32573;51.290;6.926;2024-02-26T06:00:12;3.70;;;1.67;;
46835;SDS011;32573;51.290;6.926;2024-02-26T06:02:42;2.85;;;1.50;;
46835;SDS011;32573;51.290;6.926;2024-02-26T06:05:10;3.25;;;1.65;;
46835;SDS011;32573;51.290;6.926;2024-02-26T06:07:40;4.00;;;1.65;;
46835;SDS011;32573;51.290;6.926;2024-02-26T06:10:08;4.15;;;1.77;;
46835;SDS011;32573;51.290;6.926;2024-02-26T06:12:37;3.15;;;1.52;;
46835;SDS011;32573;51.290;6.926;2024-02-26T06:15:05;3.28;;;1.50;;
46835;SDS011;32573;51.290;6.926;2024-02-26T06:17:34;2.90;;;1.70;;
46835;SDS011;32573;51.290;6.926;2024-02-26T06:20:03;2.88;;;1.48;;
46835;SDS011;32573;51.290;6.926;2024-02-26T06:22:33;2.90;;;1.40;;
46835;SDS011;32573;51.290;6.926;2024-02-26T06:25:03;3.72;;;1.67;;
46835;SDS011;32573;51.290;6.926;2024-02-26T06:27:31;2.55;;;1.30;;
46835;SDS011;32573;51.290;6.926;2024-02-26T06:30:00;3.45;;;1.70;;
46835;SDS011;32573;51.290;6.926;2024-02-26T06:32:28;3.55;;;1.63;;
46835;SDS011;32573;51.290;6.926;2024-02-26T06:34:56;3.72;;;1.70;;
46835;SDS011;32573;51.290;6.926;2024-02-26T06:37:25;3.85;;;1.67;;
46835;SDS011;32573;51.290;6.926;2024-02-26T06:39:53;3.00;;;1.60;;
46835;SDS011;32573;51.290;6.926;2024-02-26T06:42:23;4.20;;;1.85;;
46835;SDS011;32573;51.290;6.926;2024-02-26T06:44:51;4.65;;;1.98;;
46835;SDS011;32573;51.290;6.926;2024-02-26T06:47:19;4.40;;;1.85;;
46835;SDS011;32573;51.290;6.926;2024-02-26T06:49:47;3.28;;;1.85;;
46835;SDS011;32573;51.290;6.926;2024-02-26T06:52:16;3.75;;;1.98;;
46835;SDS011;32573;51.290;6.926;2024-02-26T06:54:44;3.80;;;1.90;;
46835;SDS011;32573;51.290;6.926;2024-02-26T06:57:15;2.75;;;1.65;;
46835;SDS011;32573;51.290;6.926;2024-02-26T06:59:44;5.13;;;1.95;;
46835;SDS011;32573;51.290;6.926;2024-02-26T07:02:14;3.42;;;1.67;;
46835;SDS011;32573;51.290;6.926;2024-02-26T07:04:43;3.22;;;1.70;;
46835;SDS011;32573;51.290;6.926;2024-02-26T07:07:11;3.60;;;1.80;;
46835;SDS011;32573;51.290;6.926;2024-02-26T07:09:41;3.53;;;1.80;;
46835;SDS011;32573;51.290;6.926;2024-02-26T07:12:10;3.00;;;1.50;;
46835;SDS011;32573;51.290;6.926;2024-02-26T07:14:38;4.50;;;1.67;;
46835;SDS011;32573;51.290;6.926;2024-02-26T07:17:08;3.80;;;1.98;;
46835;SDS011;32573;51.290;6.926;2024-02-26T07:19:36;3.22;;;1.58;;
46835;SDS011;32573;51.290;6.926;2024-02-26T07:22:04;3.70;;;1.80;;
46835;SDS011;32573;51.290;6.926;2024-02-26T07:24:32;3.40;;;1.60;;
46835;SDS011;32573;51.290;6.926;2024-02-26T07:27:01;3.65;;;1.60;;
46835;SDS011;32573;51.290;6.926;2024-02-26T07:29:29;4.22;;;2.13;;
46835;SDS011;32573;51.290;6.926;2024-02-26T07:31:57;3.33;;;1.80;;
46835;SDS011;32573;51.290;6.926;2024-02-26T07:34:27;3.50;;;1.80;;
46835;SDS011;32573;51.290;6.926;2024-02-26T07:36:56;3.95;;;1.65;;
46835;SDS011;32573;51.290;6.926;2024-02-26T07:39:25;3.60;;;1.65;;
46835;SDS011;32573;51.290;6.926;2024-02-26T07:41:53;3.75;;;1.73;;
46835;SDS011;32573;51.290;6.926;2024-02-26T07:44:21;3.65;;;1.77;;
46835;SDS011;32573;51.290;6.926;2024-02-26T07:46:50;3.05;;;1.60;;
46835;SDS011;32573;51.290;6.926;2024-02-26T07:49:18;3.28;;;1.50;;
46835;SDS011;32573;51.290;6.926;2024-02-26T07:51:48;3.28;;;1.77;;
46835;SDS011;32573;51.290;6.926;2024-02-26T07:54:16;3.58;;;1.45;;
46835;SDS011;32573;51.290;6.926;2024-02-26T07:56:46;3.72;;;1.80;;
46835;SDS011;32573;51.290;6.926;2024-02-26T07:59:14;3.10;;;1.50;;
46835;SDS011;32573;51.290;6.926;2024-02-26T08:01:43;3.50;;;1.70;;
46835;SDS011;32573;51.290;6.926;2024-02-26T08:04:18;4.35;;;1.83;;
46835;SDS011;32573;51.290;6.926;2024-02-26T08:06:46;3.45;;;1.50;;
46835;SDS011;32573;51.290;6.926;2024-02-26T08:09:16;3.65;;;1.83;;
46835;SDS011;32573;51.290;6.926;2024-02-26T08:11:44;3.65;;;1.80;;
46835;SDS011;32573;51.290;6.926;2024-02-26T08:14:13;3.45;;;1.55;;
46835;SDS011;32573;51.290;6.926;2024-02-26T08:16:41;3.40;;;1.63;;
46835;SDS011;32573;51.290;6.926;2024-02-26T08:19:09;3.67;;;1.60;;
46835;SDS011;32573;51.290;6.926;2024-02-26T08:21:40;2.88;;;1.40;;
46835;SDS011;32573;51.290;6.926;2024-02-26T08:24:08;4.03;;;1.65;;
46835;SDS011;32573;51.290;6.926;2024-02-26T08:26:38;3.70;;;1.73;;
46835;SDS011;32573;51.290;6.926;2024-02-26T08:29:06;3.50;;;1.48;;
46835;SDS011;32573;51.290;6.926;2024-02-26T08:31:35;3.42;;;1.60;;
46835;SDS011;32573;51.290;6.926;2024-02-26T08:34:04;3.88;;;1.70;;
46835;SDS011;32573;51.290;6.926;2024-02-26T08:36:33;3.20;;;1.52;;
46835;SDS011;32573;51.290;6.926;2024-02-26T08:39:02;3.38;;;1.60;;
46835;SDS011;32573;51.290;6.926;2024-02-26T08:41:30;3.65;;;1.55;;
46835;SDS011;32573;51.290;6.926;2024-02-26T08:44:00;2.75;;;1.25;;
46835;SDS011;32573;51.290;6.926;2024-02-26T08:46:28;4.65;;;1.67;;
46835;SDS011;32573;51.290;6.926;2024-02-26T08:48:57;3.17;;;1.70;;
46835;SDS011;32573;51.290;6.926;2024-02-26T08:51:25;3.35;;;1.65;;
46835;SDS011;32573;51.290;6.926;2024-02-26T08:53:54;3.53;;;1.60;;
46835;SDS011;32573;51.290;6.926;2024-02-26T08:56:22;2.90;;;1.33;;
46835;SDS011;32573;51.290;6.926;2024-02-26T08:58:50;3.25;;;1.60;;
46835;SDS011;32573;51.290;6.926;2024-02-26T09:01:21;3.10;;;1.40;;
46835;SDS011;32573;51.290;6.926;2024-02-26T09:03:50;2.72;;;1.45;;
46835;SDS011;32573;51.290;6.926;2024-02-26T09:06:18;3.03;;;1.50;;
46835;SDS011;32573;51.290;6.926;2024-02-26T09:08:47;3.45;;;1.60;;
46835;SDS011;32573;51.290;6.926;2024-02-26T09:11:15;2.88;;;1.50;;
46835;SDS011;32573;51.290;6.926;2024-02-26T09:13:44;4.88;;;1.75;;
46835;SDS011;32573;51.290;6.926;2024-02-26T09:16:12;3.17;;;1.50;;
46835;SDS011;32573;51.290;6.926;2024-02-26T09:18:42;3.00;;;1.20;;
46835;SDS011;32573;51.290;6.926;2024-02-26T09:21:10;2.85;;;1.40;;
46835;SDS011;32573;51.290;6.926;2024-02-26T09:23:39;3.20;;;1.50;;
46835;SDS011;32573;51.290;6.926;2024-02-26T09:26:07;3.90;;;1.60;;
46835;SDS011;32573;51.290;6.926;2024-02-26T09:28:36;3.53;;;1.58;;
46835;SDS011;32573;51.290;6.926;2024-02-26T09:31:05;2.92;;;1.42;;
46835;SDS011;32573;51.290;6.926;2024-02-26T09:33:34;3.10;;;1.50;;
46835;SDS011;32573;51.290;6.926;2024-02-26T09:36:04;3.85;;;1.67;;
46835;SDS011;32573;51.290;6.926;2024-02-26T09:38:33;3.85;;;1.67;;
46835;SDS011;32573;51.290;6.926;2024-02-26T09:41:22;3.53;;;1.65;;
46835;SDS011;32573;51.290;6.926;2024-02-26T09:43:50;3.50;;;1.85;;
46835;SDS011;32573;51.290;6.926;2024-02-26T09:46:24;3.22;;;1.42;;
46835;SDS011;32573;51.290;6.926;2024-02-26T09:48:53;3.15;;;1.40;;
46835;SDS011;32573;51.290;6.926;2024-02-26T09:51:24;2.90;;;1.50;;
46835;SDS011;32573;51.290;6.926;2024-02-26T09:53:53;3.33;;;1.70;;
46835;SDS011;32573;51.290;6.926;2024-02-26T09:56:24;2.97;;;1.60;;
46835;SDS011;32573;51.290;6.926;2024-02-26T09:58:53;3.17;;;1.60;;
46835;SDS011;32573;51.290;6.926;2024-02-26T10:01:23;4.40;;;1.77;;
46835;SDS011;32573;51.290;6.926;2024-02-26T10:03:54;3.67;;;1.60;;
46835;SDS011;32573;51.290;6.926;2024-02-26T10:06:26;3.33;;;1.55;;
46835;SDS011;32573;51.290;6.926;2024-02-26T10:08:55;3.00;;;1.30;;
46835;SDS011;32573;51.290;6.926;2024-02-26T10:11:25;3.85;;;1.50;;
46835;SDS011;32573;51.290;6.926;2024-02-26T10:13:55;3.97;;;1.73;;
46835;SDS011;32573;51.290;6.926;2024-02-26T10:16:24;4.15;;;1.70;;
46835;SDS011;32573;51.290;6.926;2024-02-26T10:18:53;3.50;;;1.50;;
46835;SDS011;32573;51.290;6.926;2024-02-26T10:21:27;2.90;;;1.48;;
46835;SDS011;32573;51.290;6.926;2024-02-26T10:23:55;3.20;;;1.52;;
46835;SDS011;32573;51.290;6.926;2024-02-26T10:26:24;3.28;;;1.70;;
46835;SDS011;32573;51.290;6.926;2024-02-26T10:28:52;3.85;;;1.58;;
46835;SDS011;32573;51.290;6.926;2024-02-26T10:31:21;4.65;;;1.90;;
46835;SDS011;32573;51.290;6.926;2024-02-26T10:33:50;3.17;;;1.40;;
46835;SDS011;32573;51.290;6.926;2024-02-26T10:36:24;3.20;;;1.50;;
46835;SDS011;32573;51.290;6.926;2024-02-26T10:39:14;3.58;;;1.40;;
46835;SDS011;32573;51.290;6.926;2024-02-26T10:41:43;3.20;;;1.55;;
46835;SDS011;32573;51.290;6.926;2024-02-26T10:44:12;3.35;;;1.50;;
46835;SDS011;32573;51.290;6.926;2024-02-26T10:46:46;3.30;;;1.40;;
46835;SDS011;32573;51.290;6.926;2024-02-26T10:49:16;3.22;;;1.55;;
46835;SDS011;32573;51.290;6.926;2024-02-26T10:51:49;3.10;;;1.60;;
46835;SDS011;32573;51.290;6.926;2024-02-26T10:54:23;3.25;;;1.50;;
46835;SDS011;32573;51.290;6.926;2024-02-26T10:56:55;3.30;;;1.60;;
46835;SDS011;32573;51.290;6.926;2024-02-26T10:59:25;3.67;;;1.90;;
46835;SDS011;32573;51.290;6.926;2024-02-26T11:01:54;4.57;;;2.13;;
46835;SDS011;32573;51.290;6.926;2024-02-26T11:04:23;3.25;;;1.63;;
46835;SDS011;32573;51.290;6.926;2024-02-26T11:06:56;4.68;;;1.90;;
46835;SDS011;32573;51.290;6.926;2024-02-26T11:09:25;4.07;;;1.85;;
46835;SDS011;32573;51.290;6.926;2024-02-26T11:11:55;4.07;;;1.88;;
46835;SDS011;32573;51.290;6.926;2024-02-26T11:14:26;4.18;;;1.98;;
46835;SDS011;32573;51.290;6.926;2024-02-26T11:16:58;3.33;;;1.67;;
46835;SDS011;32573;51.290;6.926;2024-02-26T11:19:27;3.00;;;1.58;;
46835;SDS011;32573;51.290;6.926;2024-02-26T11:22:02;3.40;;;1.70;;
46835;SDS011;32573;51.290;6.926;2024-02-26T11:24:48;2.65;;;1.30;;
46835;SDS011;32573;51.290;6.926;2024-02-26T11:27:17;4.78;;;1.90;;
46835;SDS011;32573;51.290;6.926;2024-02-26T11:29:50;4.22;;;2.10;;
46835;SDS011;32573;51.290;6.926;2024-02-26T11:32:20;5.18;;;2.22;;
46835;SDS011;32573;51.290;6.926;2024-02-26T11:34:49;4.30;;;2.45;;
46835;SDS011;32573;51.290;6.926;2024-02-26T11:37:19;3.90;;;2.30;;
46835;SDS011;32573;51.290;6.926;2024-02-26T11:39:48;4.53;;;2.08;;
46835;SDS011;32573;51.290;6.926;2024-02-26T11:42:22;5.22;;;2.20;;
46835;SDS011;32573;51.290;6.926;2024-02-26T11:44:52;4.25;;;2.20;;
46835;SDS011;32573;51.290;6.926;2024-02-26T11:47:21;4.38;;;2.30;;
46835;SDS011;32573;51.290;6.926;2024-02-26T11:49:50;7.13;;;2.53;;
46835;SDS011;32573;51.290;6.926;2024-02-26T11:52:20;4.70;;;2.28;;
46835;SDS011;32573;51.290;6.926;2024-02-26T11:54:49;4.82;;;2.50;;
46835;SDS011;32573;51.290;6.926;2024-02-26T11:57:20;4.30;;;2.20;;
46835;SDS011;32573;51.290;6.926;2024-02-26T11:59:49;4.88;;;2.45;;
46835;SDS011;32573;51.290;6.926;2024-02-26T12:02:37;4.45;;;2.00;;
46835;SDS011;32573;51.290;6.926;2024-02-26T12:05:09;5.25;;;2.70;;
46835;SDS011;32573;51.290;6.926;2024-02-26T12:07:42;4.68;;;2.38;;
46835;SDS011;32573;51.290;6.926;2024-02-26T12:10:14;5.18;;;2.25;;
46835;SDS011;32573;51.290;6.926;2024-02-26T12:12:58;4.55;;;2.20;;
46835;SDS011;32573;51.290;6.926;2024-02-26T12:15:31;4.82;;;2.30;;
46835;SDS011;32573;51.290;6.926;2024-02-26T12:18:01;5.75;;;2.72;;
46835;SDS011;32573;51.290;6.926;2024-02-26T12:20:31;3.95;;;2.17;;
46835;SDS011;32573;51.290;6.926;2024-02-26T12:23:01;4.47;;;2.17;;
46835;SDS011;32573;51.290;6.926;2024-02-26T12:25:30;4.40;;;2.22;;
46835;SDS011;32573;51.290;6.926;2024-02-26T12:27:59;4.35;;;2.22;;
46835;SDS011;32573;51.290;6.926;2024-02-26T12:30:28;4.65;;;2.28;;
46835;SDS011;32573;51.290;6.926;2024-02-26T12:33:00;4.43;;;2.08;;
46835;SDS011;32573;51.290;6.926;2024-02-26T12:35:29;4.90;;;2.15;;
46835;SDS011;32573;51.290;6.926;2024-02-26T12:38:00;5.68;;;2.92;;
46835;SDS011;32573;51.290;6.926;2024-02-26T12:40:30;5.78;;;2.83;;
46835;SDS011;32573;51.290;6.926;2024-02-26T12:42:59;6.93;;;3.35;;
46835;SDS011;32573;51.290;6.926;2024-02-26T12:45:28;5.68;;;2.70;;
46835;SDS011;32573;51.290;6.926;2024-02-26T12:47:56;5.32;;;2.70;;
46835;SDS011;32573;51.290;6.926;2024-02-26T12:50:27;6.93;;;2.95;;
46835;SDS011;32573;51.290;6.926;2024-02-26T12:52:56;6.78;;;3.40;;
46835;SDS011;32573;51.290;6.926;2024-02-26T12:55:25;6.53;;;2.65;;
46835;SDS011;32573;51.290;6.926;2024-02-26T12:57:54;5.97;;;2.88;;
46835;SDS011;32573;51.290;6.926;2024-02-26T13:00:24;6.72;;;3.20;;
46835;SDS011;32573;51.290;6.926;2024-02-26T13:02:55;5.90;;;3.28;;
46835;SDS011;32573;51.290;6.926;2024-02-26T13:05:24;6.75;;;3.10;;
46835;SDS011;32573;51.290;6.926;2024-02-26T13:07:53;4.93;;;2.60;;
46835;SDS011;32573;51.290;6.926;2024-02-26T13:10:21;5.72;;;2.85;;
46835;SDS011;32573;51.290;6.926;2024-02-26T13:12:52;6.15;;;2.75;;
46835;SDS011;32573;51.290;6.926;2024-02-26T13:15:21;4.45;;;2.20;;
46835;SDS011;32573;51.290;6.926;2024-02-26T13:17:50;6.32;;;2.78;;
46835;SDS011;32573;51.290;6.926;2024-02-26T13:20:26;5.45;;;2.75;;
46835;SDS011;32573;51.290;6.926;2024-02-26T13:23:00;6.93;;;3.08;;
46835;SDS011;32573;51.290;6.926;2024-02-26T13:25:29;5.28;;;2.47;;
46835;SDS011;32573;51.290;6.926;2024-02-26T13:28:09;5.53;;;2.95;;
46835;SDS011;32573;51.290;6.926;2024-02-26T13:30:40;5.28;;;2.85;;
46835;SDS011;32573;51.290;6.926;2024-02-26T13:33:09;4.45;;;2.20;;
46835;SDS011;32573;51.290;6.926;2024-02-26T13:35:38;6.53;;;2.88;;
46835;SDS011;32573;51.290;6.926;2024-02-26T13:38:07;5.47;;;2.78;;
46835;SDS011;32573;51.290;6.926;2024-02-26T13:40:36;6.65;;;3.35;;
46835;SDS011;32573;51.290;6.926;2024-02-26T13:43:05;6.80;;;3.10;;
46835;SDS011;32573;51.290;6.926;2024-02-26T13:45:36;5.88;;;2.50;;
46835;SDS011;32573;51.290;6.926;2024-02-26T13:48:07;5.45;;;2.85;;
46835;SDS011;32573;51.290;6.926;2024-02-26T13:50:38;5.43;;;2.70;;
46835;SDS011;32573;51.290;6.926;2024-02-26T13:53:07;6.00;;;3.08;;
46835;SDS011;32573;51.290;6.926;2024-02-26T13:55:37;6.18;;;3.45;;
46835;SDS011;32573;51.290;6.926;2024-02-26T13:58:07;4.97;;;2.47;;
46835;SDS011;32573;51.290;6.926;2024-02-26T14:00:41;8.38;;;3.85;;
46835;SDS011;32573;51.290;6.926;2024-02-26T14:05:41;5.47;;;3.22;;
46835;SDS011;32573;51.290;6.926;2024-02-26T14:08:14;6.00;;;3.00;;
46835;SDS011;32573;51.290;6.926;2024-02-26T14:10:43;6.50;;;3.78;;
46835;SDS011;32573;51.290;6.926;2024-02-26T14:13:13;7.82;;;3.85;;
46835;SDS011;32573;51.290;6.926;2024-02-26T14:15:43;5.18;;;3.08;;
46835;SDS011;32573;51.290;6.926;2024-02-26T14:18:12;5.07;;;2.55;;
46835;SDS011;32573;51.290;6.926;2024-02-26T14:20:42;5.93;;;2.50;;
46835;SDS011;32573;51.290;6.926;2024-02-26T14:23:11;4.95;;;2.30;;
46835;SDS011;32573;51.290;6.926;2024-02-26T14:25:40;6.15;;;3.35;;
46835;SDS011;32573;51.290;6.926;2024-02-26T14:28:10;4.90;;;2.67;;
46835;SDS011;32573;51.290;6.926;2024-02-26T14:30:49;7.32;;;3.78;;
46835;SDS011;32573;51.290;6.926;2024-02-26T14:33:19;5.22;;;3.03;;
46835;SDS011;32573;51.290;6.926;2024-02-26T14:35:49;5.43;;;2.70;;
46835;SDS011;32573;51.290;6.926;2024-02-26T14:38:18;6.03;;;2.92;;
46835;SDS011;32573;51.290;6.926;2024-02-26T14:40:48;5.03;;;2.72;;
46835;SDS011;32573;51.290;6.926;2024-02-26T14:43:17;7.30;;;3.53;;
46835;SDS011;32573;51.290;6.926;2024-02-26T14:45:46;5.43;;;2.55;;
46835;SDS011;32573;51.290;6.926;2024-02-26T14:48:16;5.32;;;2.15;;
46835;SDS011;32573;51.290;6.926;2024-02-26T14:50:45;6.10;;;2.78;;
46835;SDS011;32573;51.290;6.926;2024-02-26T14:53:13;4.75;;;2.55;;
46835;SDS011;32573;51.290;6.926;2024-02-26T14:55:42;4.57;;;2.42;;
46835;SDS011;32573;51.290;6.926;2024-02-26T14:58:10;5.22;;;2.53;;
46835;SDS011;32573;51.290;6.926;2024-02-26T15:00:38;4.68;;;2.28;;
46835;SDS011;32573;51.290;6.926;2024-02-26T15:03:07;5.00;;;2.33;;